This is the latest recevied weather packets stored in our database for station/object PU5FJO-13. If no packets are shown the sender has not sent any weather packets the latest 10 day(s).
| Time | Temp. | Humidity | Pressure | Rain* | Wind** | Luminosity | Snow |
|---|---|---|---|---|---|---|---|
| 1777733170 | 22.78° C | 72% | 1013.4 hPa | - | - | - | - |
| 1777732570 | 22.22° C | 73% | 1013.4 hPa | - | - | - | - |
| 1777731970 | 22.22° C | 72% | 1013.3 hPa | - | - | - | - |
| 1777731370 | 22.22° C | 70% | 1012.3 hPa | - | - | - | - |
| 1777730771 | 22.22° C | 70% | 1013 hPa | - | - | - | - |
| 1777730170 | 22.22° C | 73% | 1013.4 hPa | - | - | - | - |
| 1777729573 | 21.67° C | 76% | 1012.2 hPa | - | - | - | - |
| 1777728970 | 21.67° C | 75% | 1012.2 hPa | - | - | - | - |
| 1777728370 | 21.67° C | 73% | 1012.5 hPa | - | - | - | - |
| 1777727770 | 21.67° C | 74% | 1013.1 hPa | - | - | - | - |
| 1777727170 | 21.11° C | 77% | 1012.8 hPa | - | - | - | - |
| 1777726570 | 21.67° C | 74% | 1012.6 hPa | - | - | - | - |
| 1777725970 | 21.67° C | 72% | 1012.8 hPa | - | - | - | - |
| 1777725370 | 21.67° C | 71% | 1012.5 hPa | - | - | - | - |
| 1777724770 | 21.11° C | 75% | 1013.1 hPa | - | - | - | - |
| 1777724170 | 21.11° C | 76% | 1012.7 hPa | - | - | - | - |
| 1777723570 | 20.56° C | 77% | 1012.2 hPa | - | - | - | - |
| 1777722970 | 21.11° C | 73% | 1011.2 hPa | - | - | - | - |
| 1777722370 | 21.11° C | 73% | 1011.3 hPa | - | - | - | - |
| 1777721770 | 21.11° C | 73% | 1011.9 hPa | - | - | - | - |
| 1777721170 | 21.11° C | 74% | 1012.5 hPa | - | - | - | - |
| 1777720570 | 20.56° C | 78% | 1013.3 hPa | - | - | - | - |
| 1777719970 | 20.56° C | 80% | 1013.8 hPa | - | - | - | - |
| 1777719370 | 20° C | 82% | 1014.4 hPa | - | - | - | - |
| 1777718770 | 20° C | 84% | 1014.9 hPa | - | - | - | - |
* Rain since midnight (hover to see other rain measurements)
** Current wind speed in m/s (hover to see current wind gust speed)